الصفحة الرئيسية
METAR-TAF:

METAR-TAF

مطار :

مطار نغوراه راي الدولي

دنباسار, إندونيسيا

دائرة عرض: 08-44-53S, خط طول: 115-10-03E, ارتفاع: 4 متر

مراقبة الطقس الحالي

تاريخ ووقت الإصدار 30 دقيقة قبل الساعة 11:00UTC
ريح 12 عقدة من الجنوب/الجنوب الشرقي
درجة الحرارة 28°درجة مئوية
الرطوبة 100%
ضغط 1010 hPa
الرؤية 10 كم أو أكثر
غيوم متفرقة على ارتفاع 1600 قدم

METAR: WADD 291100Z 15012KT 9999 SCT016 28/28 Q1010 NOSIG

زمن: 18:30 (11:30 UTC)

توقعات

تاريخ ووقت الإصدار 6ساعات و 30 دقيقة قبل الساعة 05:00UTC
التوقعات صالحة من29 الساعة 06 UTC إلى 30 الساعة 06 UTC
ريح 11 عقدة من الجنوب الشرقي
الرؤية 10 كم أو أكثر
غيوم متفرقة على ارتفاع 1700 قدم

TAF: WADD 290500Z 2906/3006 13011KT 9999 SCT017

أرصاد الطقس والتوقعات من أكثر من 4000 مطار (تقارير الطقس للمطار METAR والتنبؤ بالطقس بالمطارTAF).

المحطات المتاحة هي النقط الصفراء والحمراء على الخريطة.

حرك المؤشر فوق النقطة لمعرفة اسم المحطة.

ثم انقر لمعرفة أرصاد وتوقعات الطقس.

لتغيير الخارطة: اضغط على الأزرار الخضراء مع رمز الصليب الأسود للتكبير. على الزر الأخضر مع شرطة للتصغير، أو على الأسهم الخضراء للخرائط المجاورة.


METAR-TAF: